• Join FlightAware (Why Join?)
  • Login
  • US Flag 
11:47AM EDT


 

Airport Tracker/Info


-or-


 

Live Flight TrackerFlight Track Log ✈ JUS827 ✈ 26-Apr-2013 ✈ KLIT - KLRD

Flight Track Log - Related Links

Times and Time Zones

All times are in EDT time to prevent confusion due to time zone crossing. See the JUS827 flight status page for this flight to view local times or setup timezone preferences in your user account.

Time Position Orientation Groundspeed Altitude Reporting Facility
EDT Latitude Longitude Course Direction KTS MPH feet Rate Location/Type
05:44AM 34.6553 -92.2356 175° South 210 242 3,400  Level Memphis Center
05:45AM 34.5906 -92.2367 181° South 224 258 6,000 2,280 Climbing Memphis Center
05:46AM 34.5175 -92.2350 179° South 237 273 8,200 2,100 Climbing Memphis Center
05:47AM 34.4486 -92.2461 188° South 258 297 10,200 1,680 Climbing Memphis Center
05:48AM 34.3911 -92.3128 224° Southwest 256 295 11,600 1,560 Climbing Memphis Center
05:49AM 34.3294 -92.3844 224° Southwest 283 326 13,400 1,620 Climbing Memphis Center
05:50AM 34.2658 -92.4508 221° Southwest 295 339 14,900 1,500 Climbing Memphis Center
05:51AM 34.2000 -92.5169 220° Southwest 306 352 16,400 1,380 Climbing Memphis Center
05:52AM 34.1239 -92.5778 213° Southwest 321 369 17,700 960 Climbing Memphis Center
05:53AM 34.0561 -92.6361 215° Southwest 331 381 18,400 900 Climbing Memphis Center
05:55AM 33.8703 -92.7683 211° Southwest 349 402 20,700 1,020 Climbing Fort Worth Center
05:56AM 33.7872 -92.8303 212° Southwest 357 411 21,700 900 Climbing Fort Worth Center
05:57AM 33.7125 -92.9039 219° Southwest 362 417 22,600 1,020 Climbing Fort Worth Center
05:58AM 33.6336 -92.9731 216° Southwest 362 417 23,800 1,320 Climbing Fort Worth Center
05:59AM 33.5525 -93.0417 215° Southwest 362 417 25,300 1,380 Climbing Fort Worth Center
06:00AM 33.4736 -93.1081 215° Southwest 362 417 26,600 1,200 Climbing Fort Worth Center
06:01AM 33.3942 -93.1692 213° Southwest 351 404 27,800 1,200 Climbing Fort Worth Center
06:02AM 33.3128 -93.2300 212° Southwest 346 398 29,100 1,080 Climbing Fort Worth Center
06:03AM 33.2356 -93.2908 213° Southwest 346 398 30,000 1,020 Climbing Fort Worth Center
06:04AM 33.1581 -93.3517 213° Southwest 341 392 31,200 1,020 Climbing Fort Worth Center
06:05AM 33.0808 -93.4119 213° Southwest 341 392 32,100 1,080 Climbing Fort Worth Center
06:06AM 33.0031 -93.4625 209° Southwest 335 386 33,400 900 Climbing Fort Worth Center
06:07AM 32.9297 -93.5228 215° Southwest 330 380 33,900 300 Climbing Fort Worth Center
06:08AM 32.8564 -93.5803 213° Southwest 330 380 34,000  Climbing Fort Worth Center
06:09AM 32.7789 -93.6406 213° Southwest 330 380 34,000  Level Fort Worth Center
06:10AM 32.6994 -93.7031 214° Southwest 336 387 34,000  Level Fort Worth Center
06:11AM 32.6258 -93.7556 211° Southwest 341 392 34,000  Level Fort Worth Center
06:12AM 32.5442 -93.8178 213° Southwest 346 398 34,000  Level Fort Worth Center
06:13AM 32.4753 -93.8969 224° Southwest 351 404 34,000  Level Fort Worth Center
06:14AM 32.4067 -93.9758 224° Southwest 351 404 34,000  Level Fort Worth Center
06:15AM 32.3356 -94.0525 222° Southwest 351 404 34,000  Level Fort Worth Center
06:16AM 32.2644 -94.1239 220° Southwest 351 404 34,000  Level Fort Worth Center
06:17AM 32.1853 -94.2125 223° Southwest 357 411 34,000  Level Fort Worth Center
06:18AM 32.1097 -94.2839 219° Southwest 357 411 34,000  Level Fort Worth Center
06:20AM 31.9636 -94.4300 220° Southwest 347 399 34,000  Level Houston Center
06:21AM 31.8917 -94.5050 222° Southwest 347 399 34,000  Level Houston Center
06:22AM 31.8250 -94.5861 226° Southwest 347 399 34,000  Level Houston Center
06:23AM 31.7614 -94.6717 229° Southwest 349 402 34,000  Level Houston Center
06:24AM 31.6944 -94.7519 226° Southwest 347 399 34,000  Level Houston Center
06:25AM 31.6261 -94.8328 225° Southwest 351 404 34,000  Level Houston Center
06:26AM 31.5561 -94.9114 224° Southwest 350 403 34,000  Level Houston Center
06:27AM 31.4842 -94.9897 223° Southwest 353 406 34,000  Level Houston Center
06:28AM 31.4119 -95.0658 222° Southwest 353 406 34,000  Level Houston Center
06:29AM 31.3389 -95.1419 222° Southwest 353 406 34,000  Level Houston Center
06:30AM 31.2664 -95.2189 222° Southwest 355 409 34,000  Level Houston Center
06:31AM 31.1953 -95.2967 223° Southwest 353 406 34,000  Level Houston Center
06:32AM 31.1206 -95.3728 221° Southwest 354 407 34,000  Level Houston Center
06:33AM 31.0450 -95.4478 220° Southwest 355 409 34,000  Level Houston Center
06:34AM 30.9522 -95.5358 219° Southwest 357 411 34,000  Level Houston Center
06:35AM 30.8725 -95.6072 218° Southwest 359 413 34,000  Level Houston Center
06:36AM 30.7936 -95.6806 219° Southwest 363 418 34,000  Level Houston Center
06:37AM 30.7219 -95.7614 224° Southwest 360 414 34,000  Level Houston Center
06:38AM 30.6472 -95.8392 222° Southwest 362 417 34,000  Level Houston Center
06:39AM 30.5697 -95.9175 221° Southwest 368 423 34,000  Level Houston Center
06:40AM 30.4908 -95.9908 219° Southwest 366 421 34,000  Level Houston Center
06:41AM 30.4103 -96.0603 217° Southwest 368 423 34,000  Level Houston Center
06:42AM 30.3267 -96.1322 217° Southwest 369 425 34,000  Level Houston Center
06:43AM 30.2411 -96.2003 215° Southwest 369 425 34,000  Level Houston Center
06:44AM 30.1528 -96.2667 213° Southwest 373 429 34,000  Level Houston Center
06:45AM 30.0750 -96.3228 212° Southwest 371 427 34,000  Level Houston Center
06:46AM 29.9867 -96.3861 212° Southwest 373 429 34,000  Level Houston Center
06:47AM 29.9108 -96.4647 222° Southwest 369 425 34,000  Level Houston Center
06:48AM 29.8378 -96.5453 224° Southwest 365 420 34,000  Level Houston Center
06:49AM 29.7619 -96.6239 222° Southwest 366 421 34,000  Level Houston Center
06:50AM 29.6853 -96.7008 221° Southwest 367 422 34,000  Level Houston Center
06:51AM 29.6078 -96.7769 221° Southwest 368 423 34,000  Level Houston Center
06:52AM 29.5294 -96.8506 219° Southwest 368 423 34,000  Level Houston Center
06:53AM 29.4336 -96.9375 218° Southwest 371 427 34,000  Level Houston Center
06:54AM 29.3522 -97.0069 217° Southwest 375 432 34,000  Level Houston Center
06:55AM 29.2786 -97.0867 223° Southwest 369 425 34,000  Level Houston Center
06:56AM 29.2067 -97.1686 225° Southwest 368 423 34,000  Level Houston Center
06:57AM 29.1336 -97.2497 224° Southwest 367 422 34,000  Level Houston Center
06:58AM 29.0575 -97.3292 222° Southwest 370 426 34,000  Level Houston Center
06:59AM 28.9811 -97.4089 222° Southwest 372 428 34,000  Level Houston Center
07:00AM 28.9067 -97.4897 224° Southwest 370 426 34,000  Level Houston Center
07:01AM 28.8311 -97.5708 223° Southwest 373 429 34,000  Level Houston Center
07:02AM 28.7536 -97.6486 221° Southwest 371 427 34,000  Level Houston Center
07:03AM 28.6797 -97.7314 225° Southwest 372 428 34,000  Level Houston Center
07:04AM 28.6058 -97.8119 224° Southwest 368 423 34,000  Level Houston Center
07:05AM 28.5419 -97.9039 232° Southwest 367 422 34,000 -1,200 Level Houston Center
07:06AM 28.4844 -98.0039 237° Southwest 377 434 31,600 -2,580 Descending Houston Center
07:07AM 28.4233 -98.1181 239° Southwest 406 467 28,900 -2,400 Descending Houston Center
07:08AM 28.3750 -98.2283 244° Southwest 393 452 26,800 -2,520 Descending Houston Center
07:09AM 28.3267 -98.3375 243° Southwest 389 448 23,900 -2,460 Descending Houston Center
07:10AM 28.2806 -98.4486 245° Southwest 391 450 21,900 -2,340 Descending Houston Center
07:11AM 28.2364 -98.5561 245° Southwest 378 435 19,200 -3,180 Descending Houston Center
07:12AM 28.1911 -98.6950 250° West 391 450 15,500 -3,120 Descending Houston Center
07:13AM 28.1589 -98.8069 252° West 382 440 12,900 -2,340 Descending Houston Center
07:14AM 28.1256 -98.8953 247° West 344 396 10,800 -2,100 Descending Houston Center
07:15AM 28.0619 -98.9536 219° Southwest 314 361 8,700 -2,160 Descending Houston Center
07:16AM 28.0122 -99.0108 225° Southwest 279 321 6,500 -1,380 Descending Houston Center
07:17AM 27.9928 -99.0872 254° West 262 302 6,000 -300 Descending Houston Center
07:18AM 27.9794 -99.1586 258° West 247 284 6,000 -420 Level Houston Center
07:19AM 27.9669 -99.2344 259° West 244 281 5,200 -1,140 Descending Houston Center
07:20AM 27.9533 -99.3100 258° West 246 283 3,800 -1,140 Descending Houston Center
07:21AM 27.9272 -99.3672 243° Southwest 222 255 3,000 -420 Descending Houston Center
07:22AM 27.8900 -99.3922 211° Southwest 180 207 3,000  Level Houston Center
07:23AM 27.8561 -99.4211 217° Southwest 160 184 3,000  Level Houston Center
07:24AM 27.8133 -99.4497 211° Southwest 156 180 3,000  Level Houston Center
07:25AM 27.7731 -99.4517 182° South 149 171 3,000  Level Houston Center
07:26AM 27.7319 -99.4533 182° South 148 170 3,000  Level Houston Center
07:27AM 27.6928 -99.4553 183° South 146 168 3,000 -300 Level Houston Center
07:28AM 27.6578 -99.4578 184° South 137 158 2,500 -600 Descending Houston Center
07:29AM 27.6258 -99.4581 180° South 127 146 1,900 -660 Descending Houston Center
07:30AM 27.5903 -99.4600 183° South 125 144 1,200 -720 Descending Houston Center
07:31AM 27.5533 -99.4617 182° South 128 147 500 -720 Descending Houston Center